createdAt,value
2022-08-11T00:00:56.312Z,7.80
2022-08-11T00:03:57.659Z,7.20
2022-08-11T00:06:54.386Z,8.60
2022-08-11T00:09:51.903Z,8.60
2022-08-11T00:12:57.119Z,9.00
2022-08-11T00:15:54.253Z,8.20
2022-08-11T00:18:53.218Z,8.40
2022-08-11T00:22:04.707Z,6.80
2022-08-11T00:25:11.276Z,9.80
2022-08-11T00:28:29.857Z,7.40
2022-08-11T00:31:31.549Z,6.20
2022-08-11T00:34:31.026Z,8.00
2022-08-11T00:37:28.272Z,7.40
2022-08-11T00:40:43.108Z,9.00
2022-08-11T00:44:05.644Z,7.80
2022-08-11T00:47:24.457Z,5.20
2022-08-11T00:50:47.366Z,7.00
2022-08-11T00:54:02.742Z,8.80
2022-08-11T00:57:38.999Z,6.20
2022-08-11T01:01:10.339Z,7.00
2022-08-11T01:04:10.829Z,10.00
2022-08-11T01:08:01.637Z,10.40
2022-08-11T01:11:11.094Z,10.00
2022-08-11T01:14:34.662Z,9.00
2022-08-11T01:17:54.648Z,9.00
2022-08-11T01:21:16.204Z,10.00
2022-08-11T01:24:31.980Z,11.20
2022-08-11T01:27:35.157Z,9.00
2022-08-11T01:30:47.745Z,7.00
2022-08-11T01:34:03.002Z,7.20
2022-08-11T01:37:26.421Z,3.40
2022-08-11T01:40:41.338Z,9.00
2022-08-11T01:44:20.147Z,7.60
2022-08-11T01:47:53.068Z,9.00
2022-08-11T01:51:09.373Z,9.40
2022-08-11T01:54:43.878Z,12.80
2022-08-11T01:58:19.082Z,8.60
2022-08-11T02:01:32.814Z,11.20
2022-08-11T02:04:45.421Z,7.20
2022-08-11T02:08:22.337Z,10.00
2022-08-11T02:11:35.628Z,10.60
2022-08-11T02:15:08.300Z,8.40
2022-08-11T02:18:17.302Z,9.60
2022-08-11T02:21:35.532Z,11.00
2022-08-11T02:24:38.076Z,10.00
2022-08-11T02:27:45.911Z,10.40
2022-08-11T02:31:11.685Z,11.60
2022-08-11T02:34:37.295Z,12.20
2022-08-11T02:37:34.411Z,15.00
2022-08-11T02:40:53.889Z,15.40
2022-08-11T02:44:00.615Z,13.00
2022-08-11T02:47:06.882Z,11.40
2022-08-11T02:50:07.278Z,11.40
2022-08-11T02:53:16.985Z,13.40
2022-08-11T02:56:23.863Z,16.80
2022-08-11T02:59:42.030Z,17.20
2022-08-11T03:03:25.784Z,15.60
2022-08-11T03:06:31.614Z,17.40
2022-08-11T03:10:03.855Z,19.00
2022-08-11T03:13:40.311Z,15.80
2022-08-11T03:16:58.890Z,14.20
2022-08-11T03:20:09.054Z,17.00
2022-08-11T03:23:46.426Z,18.20
2022-08-11T03:26:53.921Z,17.60
2022-08-11T03:29:59.037Z,18.00
2022-08-11T03:33:34.092Z,16.40
2022-08-11T03:37:16.880Z,16.00
2022-08-11T03:40:57.652Z,16.40
2022-08-11T03:44:05.014Z,14.60
2022-08-11T03:47:34.391Z,16.00
2022-08-11T03:50:55.214Z,15.40
2022-08-11T03:54:05.919Z,14.80
2022-08-11T03:57:40.826Z,18.00
2022-08-11T04:01:22.656Z,13.00
2022-08-11T04:04:45.330Z,14.80
2022-08-11T04:08:15.779Z,12.00
2022-08-11T04:11:30.045Z,12.00
2022-08-11T04:15:21.588Z,12.60
2022-08-11T04:18:34.238Z,11.60
2022-08-11T04:21:56.302Z,12.20
2022-08-11T04:24:53.750Z,15.00
2022-08-11T04:28:06.441Z,13.40
2022-08-11T04:31:03.877Z,13.20
2022-08-11T04:34:32.223Z,14.60
2022-08-11T04:37:42.449Z,15.80
2022-08-11T04:41:08.987Z,13.00
2022-08-11T04:44:06.759Z,15.40
2022-08-11T04:48:04.073Z,15.40
2022-08-11T04:51:45.194Z,16.40
2022-08-11T04:55:15.206Z,15.40
2022-08-11T04:58:56.055Z,11.00
2022-08-11T05:02:16.904Z,16.20
2022-08-11T05:05:56.513Z,14.00
2022-08-11T05:09:12.449Z,16.20
2022-08-11T05:12:26.125Z,16.20
2022-08-11T05:16:00.782Z,19.80
2022-08-11T05:19:16.492Z,16.00
2022-08-11T05:22:33.442Z,18.20
2022-08-11T05:26:45.382Z,14.80
2022-08-11T05:30:00.176Z,17.60
2022-08-11T05:33:25.714Z,18.00
2022-08-11T05:36:50.591Z,16.00
2022-08-11T05:40:08.034Z,18.20
2022-08-11T05:43:30.860Z,19.40
2022-08-11T05:46:46.612Z,20.00
2022-08-11T05:50:08.223Z,18.00
2022-08-11T05:53:24.536Z,18.60
2022-08-11T05:56:21.505Z,21.00
2022-08-11T05:59:18.994Z,18.20
2022-08-11T06:02:15.980Z,19.80
2022-08-11T06:05:12.946Z,22.40
2022-08-11T06:08:10.285Z,18.80
2022-08-11T06:11:07.874Z,22.00
2022-08-11T06:14:04.859Z,18.80
2022-08-11T06:17:03.707Z,16.20
2022-08-11T06:20:07.634Z,18.60
2022-08-11T06:23:06.751Z,20.00
2022-08-11T06:26:08.976Z,16.60
2022-08-11T06:29:05.857Z,19.40
2022-08-11T06:32:03.370Z,17.60
2022-08-11T06:35:16.231Z,14.00
2022-08-11T06:38:52.003Z,16.60
2022-08-11T06:41:49.778Z,14.20
2022-08-11T06:44:58.348Z,13.00
2022-08-11T06:47:55.768Z,15.00
2022-08-11T06:51:12.649Z,15.20
2022-08-11T06:54:11.798Z,17.60
2022-08-11T06:57:36.949Z,13.80
2022-08-11T07:00:33.681Z,14.40
2022-08-11T07:03:30.482Z,14.00
2022-08-11T07:07:13.821Z,15.80
2022-08-11T07:10:39.267Z,11.80
2022-08-11T07:13:56.903Z,12.60
2022-08-11T07:16:53.822Z,11.80
2022-08-11T07:20:12.229Z,10.00
2022-08-11T07:23:28.720Z,10.80
2022-08-11T07:26:45.022Z,16.40
2022-08-11T07:29:43.666Z,12.60
2022-08-11T07:33:00.504Z,11.00
2022-08-11T07:35:58.155Z,9.60
2022-08-11T07:38:56.291Z,11.40
2022-08-11T07:41:57.135Z,10.40
2022-08-11T07:45:14.066Z,10.20
2022-08-11T07:48:29.441Z,11.80
2022-08-11T07:51:45.257Z,9.20
2022-08-11T07:54:43.878Z,9.40
2022-08-11T07:58:16.813Z,7.00
2022-08-11T08:01:43.531Z,7.00
2022-08-11T08:04:59.431Z,8.00
2022-08-11T08:08:15.466Z,5.50
2022-08-11T08:11:33.337Z,7.00
2022-08-11T08:14:49.877Z,5.00
2022-08-11T08:18:20.879Z,6.00
2022-08-11T08:21:13.116Z,5.25
2022-08-11T08:24:09.591Z,8.00
2022-08-11T08:27:07.119Z,6.75
2022-08-11T08:30:23.439Z,6.00
2022-08-11T08:33:21.498Z,6.00
2022-08-11T08:36:20.507Z,6.20
2022-08-11T08:39:21.826Z,4.00
2022-08-11T08:42:27.031Z,5.00
2022-08-11T08:45:24.746Z,5.75
2022-08-11T08:48:21.669Z,4.00
2022-08-11T08:52:01.180Z,5.00
2022-08-11T08:54:56.406Z,4.50
2022-08-11T08:57:54.797Z,5.00
2022-08-11T09:00:53.246Z,4.50
2022-08-11T09:04:04.905Z,5.00
2022-08-11T09:07:13.442Z,6.75
2022-08-11T09:10:11.565Z,3.75
2022-08-11T09:13:09.434Z,4.00
2022-08-11T09:16:09.537Z,4.25
2022-08-11T09:19:07.437Z,5.50
2022-08-11T09:22:23.566Z,3.75
2022-08-11T09:25:40.467Z,3.00
2022-08-11T09:28:37.795Z,3.75
2022-08-11T09:31:39.642Z,4.75
2022-08-11T09:34:37.224Z,2.75
2022-08-11T09:37:55.803Z,3.75
2022-08-11T09:40:57.093Z,3.50
2022-08-11T09:44:13.381Z,2.00
2022-08-11T09:47:15.539Z,4.00
2022-08-11T09:50:14.845Z,3.25
2022-08-11T09:53:37.413Z,3.00
2022-08-11T09:56:49.503Z,3.00
2022-08-11T09:59:47.774Z,1.00
2022-08-11T10:02:46.392Z,3.75
2022-08-11T10:06:08.004Z,4.00
2022-08-11T10:09:06.259Z,2.75
2022-08-11T10:12:03.264Z,4.00
2022-08-11T10:15:23.041Z,2.00
2022-08-11T10:18:42.301Z,3.75
2022-08-11T10:21:45.167Z,3.75
2022-08-11T10:25:00.563Z,3.00
2022-08-11T10:28:28.946Z,2.50
2022-08-11T10:31:43.827Z,4.00
2022-08-11T10:34:54.491Z,2.00
2022-08-11T10:38:06.201Z,4.00
2022-08-11T10:41:27.870Z,4.00
2022-08-11T10:44:25.163Z,3.50
2022-08-11T10:47:39.321Z,4.00
2022-08-11T10:51:05.658Z,6.50
2022-08-11T10:54:21.504Z,3.00
2022-08-11T10:57:37.562Z,4.25
2022-08-11T11:00:36.211Z,4.00
2022-08-11T11:03:35.915Z,3.00
2022-08-11T11:06:44.926Z,4.00
2022-08-11T11:09:48.398Z,4.00
2022-08-11T11:13:05.912Z,4.75
2022-08-11T11:16:21.395Z,2.25
2022-08-11T11:19:20.838Z,4.00
2022-08-11T11:22:36.826Z,4.50
2022-08-11T11:25:40.288Z,5.00
2022-08-11T11:29:03.675Z,4.00
2022-08-11T11:32:10.237Z,2.75
2022-08-11T11:35:15.801Z,5.00
2022-08-11T11:38:14.270Z,3.25
2022-08-11T11:41:26.235Z,3.00
2022-08-11T11:44:23.197Z,4.00
2022-08-11T11:47:21.799Z,5.00
2022-08-11T11:50:32.773Z,5.75
2022-08-11T11:53:30.113Z,5.00
2022-08-11T11:56:26.846Z,4.00
2022-08-11T11:59:44.477Z,5.25
2022-08-11T12:02:43.056Z,4.00
2022-08-11T12:05:40.818Z,4.75
2022-08-11T12:08:37.918Z,3.50
2022-08-11T12:11:53.768Z,3.50
2022-08-11T12:14:51.001Z,5.00
2022-08-11T12:17:52.388Z,4.00
2022-08-11T12:20:49.932Z,2.75
2022-08-11T12:24:05.882Z,5.00
2022-08-11T12:27:28.583Z,4.00
2022-08-11T12:30:26.149Z,3.00
2022-08-11T12:33:23.945Z,4.50
2022-08-11T12:36:20.900Z,4.00
2022-08-11T12:40:16.973Z,5.75
2022-08-11T12:43:37.268Z,3.25
2022-08-11T12:46:37.883Z,4.50
2022-08-11T12:49:59.046Z,4.00
2022-08-11T12:52:57.085Z,4.00
2022-08-11T12:56:14.076Z,4.00
2022-08-11T12:59:29.733Z,3.00
2022-08-11T13:02:45.517Z,4.25
2022-08-11T13:05:45.191Z,5.00
2022-08-11T13:08:42.135Z,6.00
2022-08-11T13:11:58.987Z,4.75
2022-08-11T13:14:56.286Z,3.00
2022-08-11T13:17:54.186Z,5.00
2022-08-11T13:20:54.745Z,2.25
2022-08-11T13:24:00.715Z,3.75
2022-08-11T13:26:59.843Z,3.50
2022-08-11T13:30:21.188Z,4.00
2022-08-11T13:33:19.422Z,3.25
2022-08-11T13:36:20.916Z,4.50
2022-08-11T13:39:18.460Z,6.00
2022-08-11T13:42:16.369Z,3.25
2022-08-11T13:45:14.117Z,3.50
2022-08-11T13:48:11.215Z,4.00
2022-08-11T13:51:34.200Z,4.00
2022-08-11T13:54:32.792Z,6.00
2022-08-11T13:58:08.502Z,5.50
2022-08-11T14:00:52.660Z,4.00
2022-08-11T14:04:29.663Z,3.50
2022-08-11T14:07:08.749Z,5.50
2022-08-11T14:10:07.074Z,5.25
2022-08-11T14:13:26.492Z,5.00
2022-08-11T14:16:28.878Z,5.00
2022-08-11T14:19:26.388Z,4.50
2022-08-11T14:22:23.329Z,5.00
2022-08-11T14:25:20.587Z,4.25
2022-08-11T14:28:33.569Z,6.00
2022-08-11T14:31:34.429Z,4.50
2022-08-11T14:34:32.047Z,3.50
2022-08-11T14:37:29.166Z,5.50
2022-08-11T14:40:44.594Z,6.00
2022-08-11T14:44:13.246Z,4.00
2022-08-11T14:47:24.022Z,4.00
2022-08-11T14:50:24.200Z,5.25
2022-08-11T14:53:21.873Z,5.25
2022-08-11T14:56:37.298Z,3.75
2022-08-11T14:59:34.452Z,4.00
2022-08-11T15:02:49.923Z,5.00
2022-08-11T15:05:58.623Z,4.00
2022-08-11T15:08:56.572Z,4.00
2022-08-11T15:12:32.715Z,5.50
2022-08-11T15:15:44.407Z,6.75
2022-08-11T15:18:41.170Z,6.00
2022-08-11T15:21:56.799Z,5.25
2022-08-11T15:24:54.546Z,5.50
2022-08-11T15:28:10.104Z,4.50
2022-08-11T15:31:42.410Z,5.00
2022-08-11T15:35:08.330Z,6.75
2022-08-11T15:38:04.950Z,6.00
2022-08-11T15:41:21.305Z,6.25
2022-08-11T15:45:01.009Z,6.50
2022-08-11T15:48:05.804Z,7.25
2022-08-11T15:51:11.818Z,5.00
2022-08-11T15:54:15.819Z,5.50
2022-08-11T15:57:38.219Z,4.50
2022-08-11T16:00:58.979Z,6.00
2022-08-11T16:04:12.963Z,4.25
2022-08-11T16:07:11.788Z,4.25
2022-08-11T16:10:19.075Z,5.00
2022-08-11T16:13:16.205Z,4.50
2022-08-11T16:16:17.149Z,6.00
2022-08-11T16:19:14.795Z,4.25
2022-08-11T16:22:12.812Z,5.00
2022-08-11T16:27:03.822Z,7.00
2022-08-11T16:28:29.964Z,7.00
2022-08-11T16:31:28.205Z,6.00
2022-08-11T16:34:44.282Z,6.25
2022-08-11T16:37:59.876Z,5.00
2022-08-11T16:40:58.124Z,5.25
2022-08-11T16:44:13.857Z,5.00
2022-08-11T16:47:16.198Z,6.25
2022-08-11T16:50:13.419Z,6.00
2022-08-11T16:53:10.119Z,5.25
2022-08-11T16:56:07.858Z,5.50
2022-08-11T16:59:32.200Z,4.75
2022-08-11T17:02:50.957Z,6.00
2022-08-11T17:06:11.402Z,5.00
2022-08-11T17:09:27.050Z,5.75
2022-08-11T17:12:44.580Z,5.00
2022-08-11T17:16:04.903Z,7.00
2022-08-11T17:19:03.632Z,6.50
2022-08-11T17:22:19.036Z,5.00
2022-08-11T17:25:16.221Z,6.25
2022-08-11T17:28:13.404Z,5.75
2022-08-11T17:31:29.087Z,6.25
2022-08-11T17:34:44.582Z,4.75
2022-08-11T17:37:41.540Z,5.75
2022-08-11T17:40:40.027Z,5.50
2022-08-11T17:43:56.524Z,4.25
2022-08-11T17:47:11.710Z,7.00
2022-08-11T17:50:16.224Z,6.25
2022-08-11T17:53:32.868Z,7.25
2022-08-11T17:56:50.065Z,6.25
2022-08-11T17:59:53.678Z,6.00
2022-08-11T18:03:09.837Z,7.25
2022-08-11T18:06:12.574Z,7.00
2022-08-11T18:09:36.543Z,8.50
2022-08-11T18:12:51.825Z,9.00
2022-08-11T18:16:08.035Z,5.75
2022-08-11T18:19:24.765Z,9.25
2022-08-11T18:22:44.661Z,8.25
2022-08-11T18:26:02.853Z,6.50
2022-08-11T18:29:22.134Z,7.75
2022-08-11T18:32:49.645Z,6.00
2022-08-11T18:36:11.722Z,7.00
2022-08-11T18:39:29.710Z,8.25
2022-08-11T18:42:46.016Z,6.00
2022-08-11T18:46:06.916Z,7.50
2022-08-11T18:50:02.306Z,6.50
2022-08-11T18:53:12.972Z,7.25
2022-08-11T18:56:29.232Z,8.00
2022-08-11T18:59:45.238Z,6.50
2022-08-11T19:03:00.897Z,6.50
2022-08-11T19:06:38.395Z,7.50
2022-08-11T19:09:54.286Z,8.00
2022-08-11T19:13:09.955Z,7.25
2022-08-11T19:16:26.203Z,8.50
2022-08-11T19:19:46.833Z,7.00
2022-08-11T19:23:03.741Z,8.00
2022-08-11T19:26:19.534Z,7.50
2022-08-11T19:30:07.758Z,7.00
2022-08-11T19:33:11.239Z,7.00
2022-08-11T19:36:26.983Z,7.50
2022-08-11T19:39:42.856Z,8.00
2022-08-11T19:43:00.280Z,7.00
2022-08-11T19:46:17.344Z,8.25
2022-08-11T19:49:32.869Z,6.25
2022-08-11T19:52:48.740Z,8.25
2022-08-11T19:56:06.172Z,7.00
2022-08-11T19:59:21.700Z,8.00
2022-08-11T20:02:37.066Z,6.75
2022-08-11T20:05:59.439Z,8.00
2022-08-11T20:09:18.611Z,7.25
2022-08-11T20:12:33.883Z,7.00
2022-08-11T20:15:50.264Z,6.25
2022-08-11T20:19:05.958Z,5.60
2022-08-11T20:22:22.303Z,5.50
2022-08-11T20:25:37.708Z,6.00
2022-08-11T20:28:53.626Z,8.25
2022-08-11T20:32:09.804Z,6.50
2022-08-11T20:35:26.508Z,6.50
2022-08-11T20:38:42.787Z,7.50
2022-08-11T20:41:59.605Z,8.00
2022-08-11T20:45:15.301Z,6.00
2022-08-11T20:48:31.914Z,7.00
2022-08-11T20:51:48.126Z,8.20
2022-08-11T20:55:18.877Z,9.00
2022-08-11T20:59:11.136Z,9.00
2022-08-11T21:02:13.268Z,5.25
2022-08-11T21:09:05.224Z,9.00
2022-08-11T21:12:22.384Z,9.00
2022-08-11T21:16:01.217Z,9.20
2022-08-11T21:19:59.533Z,8.75
2022-08-11T21:23:16.108Z,9.80
2022-08-11T21:26:40.287Z,8.00
2022-08-11T21:29:56.097Z,6.75
2022-08-11T21:33:12.438Z,9.20
2022-08-11T21:36:28.261Z,9.00
2022-08-11T21:39:43.937Z,7.75
2022-08-11T21:43:02.466Z,9.75
2022-08-11T21:46:18.707Z,8.75
2022-08-11T21:49:33.949Z,7.75
2022-08-11T21:52:49.070Z,7.00
2022-08-11T21:56:05.406Z,7.80
2022-08-11T21:59:21.115Z,8.00
2022-08-11T22:02:37.054Z,8.80
2022-08-11T22:05:53.544Z,6.20
2022-08-11T22:09:09.460Z,8.20
2022-08-11T22:12:29.941Z,9.20
2022-08-11T22:15:50.302Z,7.00
2022-08-11T22:19:06.504Z,9.00
2022-08-11T22:22:26.347Z,8.20
2022-08-11T22:25:46.488Z,7.80
2022-08-11T22:29:07.839Z,7.60
2022-08-11T22:32:24.047Z,8.60
2022-08-11T22:35:40.749Z,7.00
2022-08-11T22:38:57.376Z,8.20
2022-08-11T22:42:13.412Z,8.80
2022-08-11T22:45:29.033Z,7.80
2022-08-11T22:48:47.361Z,8.80
2022-08-11T22:52:03.151Z,8.80
2022-08-11T22:55:19.202Z,10.00
2022-08-11T22:58:35.173Z,9.00
2022-08-11T23:01:56.176Z,9.00
2022-08-11T23:05:13.096Z,10.20
2022-08-11T23:08:29.317Z,9.60
2022-08-11T23:12:07.824Z,9.80
2022-08-11T23:15:19.981Z,10.60
2022-08-11T23:18:37.773Z,10.00
2022-08-11T23:21:54.373Z,9.60
2022-08-11T23:25:17.739Z,10.00
2022-08-11T23:28:33.470Z,9.20
2022-08-11T23:31:50.654Z,8.40
2022-08-11T23:35:38.564Z,7.60
2022-08-11T23:38:45.554Z,7.40
2022-08-11T23:42:02.766Z,8.60
2022-08-11T23:45:22.608Z,11.00
2022-08-11T23:48:38.018Z,10.00
2022-08-11T23:51:53.123Z,9.80
2022-08-11T23:55:09.272Z,8.60
2022-08-11T23:58:26.017Z,11.40
